Time;durP1;ratioP1;P1;durP2;ratioP2;P2;SDS_P1;SDS_P2;PMS_P1;PMS_P2;Temp;Humidity;BMP_temperature;BMP_pressure;BME280_temperature;BME280_humidity;BME280_pressure;Samples;Min_cycle;Max_cycle;Signal;HPM_P1;HPM_P2
2024/01/23 00:02:10;;;;;;;24.83;4.65;;;7.10;99.90;;;;;;5009448;28;20204;-63
2024/01/23 00:04:36;;;;;;;21.52;4.65;;;7.00;99.90;;;;;;5013902;28;20539;-64
2024/01/23 00:07:02;;;;;;;25.27;4.07;;;7.00;99.90;;;;;;5026381;28;20043;-64
2024/01/23 00:09:28;;;;;;;20.08;4.43;;;7.00;99.90;;;;;;5001743;28;20054;-64
2024/01/23 00:11:58;;;;;;;25.50;5.57;;;7.00;99.90;;;;;;4961485;28;20046;-64
2024/01/23 00:14:24;;;;;;;21.08;4.55;;;7.00;99.90;;;;;;5023977;28;20034;-64
2024/01/23 00:16:49;;;;;;;20.30;4.38;;;7.10;99.90;;;;;;4959456;28;20055;-65
2024/01/23 00:19:15;;;;;;;20.58;3.92;;;7.10;99.90;;;;;;5043155;28;20078;-64
2024/01/23 00:21:41;;;;;;;25.20;5.68;;;7.10;99.90;;;;;;4959137;28;22829;-64
2024/01/23 00:24:06;;;;;;;25.33;4.60;;;7.10;99.90;;;;;;4960678;28;20093;-63
2024/01/23 00:26:32;;;;;;;18.15;4.55;;;7.00;99.90;;;;;;4958478;28;20043;-63
2024/01/23 00:28:58;;;;;;;25.58;4.32;;;7.10;99.90;;;;;;5022060;28;20103;-64
2024/01/23 00:31:23;;;;;;;27.13;4.90;;;7.00;99.90;;;;;;5028343;28;20057;-64
2024/01/23 00:33:49;;;;;;;25.20;5.13;;;7.10;99.90;;;;;;4954756;28;20039;-64
2024/01/23 00:36:15;;;;;;;27.08;4.47;;;7.10;99.90;;;;;;4955485;28;20070;-64
2024/01/23 00:38:40;;;;;;;28.85;4.63;;;7.10;99.90;;;;;;4957876;28;20130;-64
2024/01/23 00:41:06;;;;;;;27.73;4.80;;;7.10;99.90;;;;;;5020939;28;20039;-63
2024/01/23 00:43:32;;;;;;;24.08;4.85;;;7.10;99.90;;;;;;5008880;28;20397;-64
2024/01/23 00:45:57;;;;;;;16.90;5.03;;;7.10;99.90;;;;;;5029779;28;20039;-63
2024/01/23 00:48:23;;;;;;;19.02;3.95;;;7.20;99.90;;;;;;5023001;28;20046;-64
2024/01/23 00:50:49;;;;;;;20.15;4.47;;;7.20;99.90;;;;;;5022368;28;20045;-64
2024/01/23 00:53:14;;;;;;;27.92;4.70;;;7.10;99.90;;;;;;5010774;28;20611;-64
2024/01/23 00:55:40;;;;;;;19.38;4.03;;;7.10;99.90;;;;;;4971296;28;20059;-64
2024/01/23 00:58:06;;;;;;;27.60;5.18;;;7.10;99.90;;;;;;5027708;28;20120;-64
2024/01/23 01:00:31;;;;;;;24.48;4.32;;;7.10;99.90;;;;;;5025699;28;20087;-64
2024/01/23 01:02:57;;;;;;;19.77;4.18;;;7.00;99.90;;;;;;4966375;28;20039;-64
2024/01/23 01:05:23;;;;;;;42.28;5.35;;;7.00;99.90;;;;;;5011218;28;20047;-63
2024/01/23 01:07:48;;;;;;;21.50;5.00;;;7.00;99.90;;;;;;4952416;28;20050;-64
2024/01/23 01:10:14;;;;;;;25.30;4.20;;;6.90;99.90;;;;;;4997830;28;20049;-64
2024/01/23 01:12:40;;;;;;;25.50;5.43;;;6.90;99.90;;;;;;5027051;28;20119;-63
2024/01/23 01:15:06;;;;;;;24.05;4.70;;;6.90;99.90;;;;;;5017448;28;20043;-64
2024/01/23 01:17:32;;;;;;;29.63;4.75;;;6.90;99.90;;;;;;5001762;28;20089;-63
2024/01/23 01:19:58;;;;;;;23.10;5.03;;;6.90;99.90;;;;;;4955307;28;20086;-63
2024/01/23 01:22:23;;;;;;;24.27;4.65;;;6.80;99.90;;;;;;5022502;28;20428;-63
2024/01/23 01:24:49;;;;;;;23.40;3.83;;;6.80;99.90;;;;;;4956648;28;20046;-63
2024/01/23 01:27:15;;;;;;;27.10;5.43;;;6.70;99.90;;;;;;5017779;28;20557;-63
2024/01/23 01:29:41;;;;;;;26.92;5.40;;;6.80;99.90;;;;;;5019196;28;20100;-63
2024/01/23 01:32:07;;;;;;;24.70;3.80;;;6.80;99.90;;;;;;4961996;28;20409;-64
2024/01/23 01:34:33;;;;;;;20.55;4.25;;;6.70;99.90;;;;;;5020263;28;20445;-63
2024/01/23 01:36:59;;;;;;;25.42;5.43;;;6.80;99.90;;;;;;5004950;28;20047;-63
2024/01/23 01:39:25;;;;;;;26.05;5.00;;;6.70;99.90;;;;;;5023118;28;20098;-63
2024/01/23 01:41:54;;;;;;;31.42;5.50;;;6.70;99.90;;;;;;5002477;28;20047;-63
2024/01/23 01:44:20;;;;;;;26.75;4.75;;;6.80;99.90;;;;;;4966434;28;20099;-64
2024/01/23 01:46:51;;;;;;;20.92;4.45;;;6.70;99.90;;;;;;5017806;28;20035;-63
2024/01/23 01:49:17;;;;;;;23.38;4.55;;;6.70;99.90;;;;;;5023297;28;20437;-64
2024/01/23 01:51:43;;;;;;;25.92;4.60;;;6.70;99.90;;;;;;5004581;28;20397;-64
2024/01/23 01:54:09;;;;;;;26.10;5.07;;;6.70;99.90;;;;;;5022147;28;20035;-64
2024/01/23 01:56:35;;;;;;;26.10;5.68;;;6.70;99.90;;;;;;5025616;28;20104;-64
2024/01/23 01:59:02;;;;;;;19.48;4.78;;;6.70;99.90;;;;;;5023525;28;20042;-64
2024/01/23 02:01:28;;;;;;;29.42;6.45;;;6.70;99.90;;;;;;5002835;28;20317;-63
2024/01/23 02:03:54;;;;;;;19.63;4.40;;;6.70;99.90;;;;;;4953693;28;20107;-63
2024/01/23 02:06:20;;;;;;;25.67;5.88;;;6.70;99.90;;;;;;4961113;28;20070;-65
2024/01/23 02:08:48;;;;;;;24.10;4.93;;;6.70;99.90;;;;;;5022108;28;20330;-64
2024/01/23 02:11:14;;;;;;;27.92;5.68;;;6.70;99.90;;;;;;5021293;28;20305;-63
2024/01/23 02:13:41;;;;;;;21.83;4.30;;;6.70;99.90;;;;;;5023586;28;20054;-64
2024/01/23 02:16:08;;;;;;;25.00;5.00;;;6.70;99.90;;;;;;4958393;28;20056;-64
2024/01/23 02:18:33;;;;;;;25.42;4.63;;;6.70;99.90;;;;;;5029764;28;20089;-64
2024/01/23 02:20:59;;;;;;;32.65;6.03;;;6.70;99.90;;;;;;4960634;28;20122;-63
2024/01/23 02:23:29;;;;;;;32.03;5.75;;;6.70;99.90;;;;;;4961735;28;20080;-64
2024/01/23 02:25:55;;;;;;;29.92;5.10;;;6.70;99.90;;;;;;5025667;28;20100;-63
2024/01/23 02:28:21;;;;;;;30.05;5.22;;;6.70;99.90;;;;;;4957905;28;20035;-64
2024/01/23 02:30:47;;;;;;;27.10;5.10;;;6.70;99.90;;;;;;5022905;28;20051;-64
2024/01/23 02:33:14;;;;;;;24.00;5.03;;;6.70;99.90;;;;;;5027430;28;20047;-63
2024/01/23 02:35:40;;;;;;;31.15;5.65;;;6.70;99.90;;;;;;5021010;28;20128;-63
2024/01/23 02:38:08;;;;;;;25.40;4.85;;;6.70;99.90;;;;;;5026763;28;20047;-63
2024/01/23 02:40:34;;;;;;;26.50;5.38;;;6.70;99.90;;;;;;5024988;28;20140;-63
2024/01/23 02:43:00;;;;;;;35.05;6.47;;;6.80;99.90;;;;;;5029040;28;20296;-63
2024/01/23 02:45:25;;;;;;;33.50;6.30;;;6.80;99.90;;;;;;5029683;28;20061;-63
2024/01/23 02:47:51;;;;;;;31.00;5.95;;;6.80;99.90;;;;;;4958671;28;20054;-63
2024/01/23 02:50:17;;;;;;;31.73;5.68;;;6.90;99.90;;;;;;5026636;28;20034;-63
2024/01/23 02:52:43;;;;;;;28.35;5.30;;;6.80;99.90;;;;;;5023892;28;20050;-63
2024/01/23 02:55:09;;;;;;;34.58;5.47;;;6.80;99.90;;;;;;5040445;28;20494;-63
2024/01/23 02:57:35;;;;;;;32.35;6.00;;;6.70;99.90;;;;;;5024943;28;20051;-62
2024/01/23 03:00:00;;;;;;;28.33;6.63;;;6.80;99.90;;;;;;4957638;28;20038;-62
2024/01/23 03:02:26;;;;;;;34.92;5.38;;;6.70;99.90;;;;;;5043568;28;20547;-62
2024/01/23 03:04:52;;;;;;;31.55;5.55;;;6.80;99.90;;;;;;5027866;28;20039;-62
2024/01/23 03:07:18;;;;;;;31.50;6.13;;;6.80;99.90;;;;;;4957927;28;20034;-62
2024/01/23 03:09:44;;;;;;;34.45;6.20;;;6.80;99.90;;;;;;5023389;28;20477;-62
2024/01/23 03:12:16;;;;;;;30.17;6.78;;;6.90;99.90;;;;;;5026430;28;20252;-61
2024/01/23 03:14:46;;;;;;;39.40;6.28;;;6.90;99.90;;;;;;5025524;28;20034;-62
2024/01/23 03:17:13;;;;;;;31.67;5.45;;;6.90;99.90;;;;;;5025899;28;20058;-62
2024/01/23 03:19:40;;;;;;;36.30;7.13;;;7.00;99.90;;;;;;4942093;28;20035;-62
2024/01/23 03:22:06;;;;;;;32.55;5.72;;;7.00;99.90;;;;;;5025380;28;20486;-62
2024/01/23 03:24:32;;;;;;;31.33;5.80;;;7.00;99.90;;;;;;5023681;28;20053;-61
2024/01/23 03:26:59;;;;;;;29.75;5.78;;;7.00;99.90;;;;;;5008761;28;20058;-62
2024/01/23 03:29:25;;;;;;;37.08;5.95;;;7.00;99.90;;;;;;4959073;28;20077;-62
2024/01/23 03:31:52;;;;;;;28.08;5.22;;;7.00;99.90;;;;;;5025205;28;20140;-62
2024/01/23 03:34:21;;;;;;;30.90;5.40;;;7.10;99.90;;;;;;5024740;28;20487;-62
2024/01/23 03:36:47;;;;;;;32.03;6.22;;;7.10;99.90;;;;;;4958287;28;20042;-62
2024/01/23 03:39:12;;;;;;;35.50;6.32;;;7.20;99.90;;;;;;5028530;28;20493;-62
2024/01/23 03:41:38;;;;;;;29.58;6.85;;;7.20;99.90;;;;;;5020842;28;20049;-61
2024/01/23 03:44:06;;;;;;;32.83;8.15;;;7.20;99.90;;;;;;5021936;28;20398;-62
2024/01/23 03:46:32;;;;;;;24.00;5.43;;;7.20;99.90;;;;;;5021817;28;20628;-62
2024/01/23 03:48:58;;;;;;;32.03;5.53;;;7.20;99.90;;;;;;4960648;28;20058;-62
2024/01/23 03:51:24;;;;;;;29.52;6.75;;;7.20;99.90;;;;;;5023612;28;20276;-62
2024/01/23 03:53:50;;;;;;;34.03;5.97;;;7.20;99.90;;;;;;5025748;28;20508;-62
2024/01/23 03:56:20;;;;;;;33.72;5.45;;;7.20;99.90;;;;;;5031640;28;20035;-62
2024/01/23 03:58:46;;;;;;;33.70;7.28;;;7.30;99.90;;;;;;5024675;28;20188;-61
2024/01/23 04:01:11;;;;;;;34.97;6.22;;;7.30;99.90;;;;;;4956274;28;20043;-62
2024/01/23 04:03:37;;;;;;;25.80;6.10;;;7.30;99.90;;;;;;5025338;28;20629;-62
2024/01/23 04:06:03;;;;;;;38.58;7.38;;;7.30;99.90;;;;;;5001499;28;20062;-62
2024/01/23 04:08:28;;;;;;;39.72;7.82;;;7.30;99.90;;;;;;5022748;28;20034;-62
2024/01/23 04:10:57;;;;;;;32.92;5.70;;;7.30;99.90;;;;;;5004633;28;20035;-62
2024/01/23 04:13:23;;;;;;;30.00;5.72;;;7.30;99.90;;;;;;5011157;28;20066;-62
2024/01/23 04:15:49;;;;;;;30.95;6.45;;;7.30;99.90;;;;;;4956285;28;20088;-62
2024/01/23 04:18:15;;;;;;;33.05;6.13;;;7.30;99.90;;;;;;5021678;28;20715;-62
2024/01/23 04:20:41;;;;;;;38.70;8.98;;;7.30;99.90;;;;;;5026814;28;20058;-62
2024/01/23 04:23:07;;;;;;;35.60;6.00;;;7.40;99.90;;;;;;5021399;28;20441;-62
2024/01/23 04:25:32;;;;;;;32.38;6.15;;;7.30;99.90;;;;;;4953655;28;20114;-62
2024/01/23 04:27:58;;;;;;;40.90;8.02;;;7.40;99.90;;;;;;5024471;28;20448;-62
2024/01/23 04:30:25;;;;;;;33.30;6.72;;;7.40;99.90;;;;;;5009372;28;20043;-61
2024/01/23 04:32:51;;;;;;;35.92;5.82;;;7.40;99.90;;;;;;4965472;28;20097;-61
2024/01/23 04:35:17;;;;;;;32.63;7.05;;;7.40;99.90;;;;;;4939117;28;20042;-61
2024/01/23 04:37:42;;;;;;;34.03;6.45;;;7.40;99.90;;;;;;5018988;28;20053;-62
2024/01/23 04:40:09;;;;;;;36.53;8.18;;;7.40;99.90;;;;;;5024780;28;20158;-62
2024/01/23 04:42:35;;;;;;;41.60;7.30;;;7.40;99.90;;;;;;5020280;28;20445;-62
2024/01/23 04:45:01;;;;;;;30.35;6.55;;;7.50;99.90;;;;;;5023407;28;20064;-62
2024/01/23 04:47:27;;;;;;;27.48;7.07;;;7.50;99.90;;;;;;4954825;28;20104;-61
2024/01/23 04:49:53;;;;;;;28.85;5.57;;;7.50;99.90;;;;;;5040547;28;20121;-62
2024/01/23 04:52:19;;;;;;;40.58;7.97;;;7.40;99.90;;;;;;5025752;28;20107;-62
2024/01/23 04:54:45;;;;;;;38.08;6.25;;;7.50;99.90;;;;;;4959017;28;20038;-61
2024/01/23 04:57:11;;;;;;;33.38;7.65;;;7.50;99.90;;;;;;5023411;28;20111;-61
2024/01/23 04:59:37;;;;;;;41.40;7.65;;;7.40;99.90;;;;;;5021653;28;20043;-61
2024/01/23 05:02:04;;;;;;;35.10;6.68;;;7.40;99.90;;;;;;5020071;28;20088;-62
2024/01/23 05:04:30;;;;;;;38.00;7.95;;;7.40;99.90;;;;;;5018180;28;20042;-60
2024/01/23 05:06:56;;;;;;;30.38;6.50;;;7.40;99.90;;;;;;4957319;28;20555;-61
2024/01/23 05:09:21;;;;;;;32.40;6.55;;;7.30;99.90;;;;;;5024300;28;20042;-61
2024/01/23 05:11:47;;;;;;;37.03;7.80;;;7.30;99.90;;;;;;5020673;28;22204;-61
2024/01/23 05:14:17;;;;;;;44.35;7.63;;;7.30;99.90;;;;;;5021967;28;20088;-61
2024/01/23 05:16:44;;;;;;;30.45;6.80;;;7.30;99.90;;;;;;5019013;28;20047;-62
2024/01/23 05:19:09;;;;;;;33.28;6.47;;;7.20;99.90;;;;;;5026687;28;20039;-61
2024/01/23 05:21:35;;;;;;;38.20;6.57;;;7.20;99.90;;;;;;5023523;28;20047;-62
2024/01/23 05:24:02;;;;;;;43.78;6.97;;;7.10;99.90;;;;;;5022460;28;20134;-61
2024/01/23 05:26:29;;;;;;;35.20;6.80;;;7.10;99.90;;;;;;5023873;28;20054;-60
2024/01/23 05:28:54;;;;;;;49.30;7.72;;;7.00;99.90;;;;;;5024032;28;20043;-61
2024/01/23 05:31:20;;;;;;;35.05;6.95;;;7.00;99.90;;;;;;5023813;28;20054;-61
2024/01/23 05:33:46;;;;;;;37.78;7.72;;;7.00;99.90;;;;;;5007136;28;20050;-61
2024/01/23 05:36:11;;;;;;;47.15;7.97;;;6.90;99.90;;;;;;4957031;28;21425;-61
2024/01/23 05:38:37;;;;;;;38.20;7.70;;;6.90;99.90;;;;;;5013039;28;20082;-61
2024/01/23 05:41:03;;;;;;;32.42;6.13;;;6.90;99.90;;;;;;5023349;28;20125;-61
2024/01/23 05:43:29;;;;;;;35.97;7.45;;;6.90;99.90;;;;;;5008100;28;20146;-61
2024/01/23 05:45:55;;;;;;;39.33;8.50;;;6.90;99.90;;;;;;5021716;28;20255;-61
2024/01/23 05:48:21;;;;;;;35.63;8.07;;;6.90;99.90;;;;;;4954915;28;20421;-61
2024/01/23 05:50:47;;;;;;;35.30;7.05;;;6.80;99.90;;;;;;4957886;28;20055;-61
2024/01/23 05:53:13;;;;;;;41.42;8.15;;;6.80;99.90;;;;;;5023843;28;20049;-61
2024/01/23 05:55:39;;;;;;;39.83;7.53;;;6.80;99.90;;;;;;5019440;28;20035;-61
2024/01/23 05:58:05;;;;;;;35.45;7.22;;;6.80;99.90;;;;;;5026308;28;20403;-61
2024/01/23 06:00:31;;;;;;;46.38;9.00;;;6.70;99.90;;;;;;5007448;28;20297;-61
2024/01/23 06:02:57;;;;;;;51.35;9.07;;;6.80;99.90;;;;;;5022147;28;20038;-61
2024/01/23 06:05:23;;;;;;;46.15;8.55;;;6.70;99.90;;;;;;5042645;28;20476;-61
2024/01/23 06:07:49;;;;;;;49.47;8.80;;;6.70;99.90;;;;;;4954062;28;20070;-61
2024/01/23 06:10:16;;;;;;;40.28;7.63;;;6.60;99.90;;;;;;5023131;28;20053;-61
2024/01/23 06:12:42;;;;;;;44.88;7.55;;;6.60;99.90;;;;;;5020456;28;20043;-61
2024/01/23 06:15:08;;;;;;;37.50;7.28;;;6.60;99.90;;;;;;5021623;28;20058;-61
2024/01/23 06:17:34;;;;;;;47.47;7.82;;;6.60;99.90;;;;;;5024874;28;20039;-61
2024/01/23 06:20:04;;;;;;;45.28;8.23;;;6.50;99.90;;;;;;4958925;28;20046;-61
2024/01/23 06:22:30;;;;;;;35.25;6.90;;;6.60;99.90;;;;;;5018695;28;20042;-61
2024/01/23 06:25:03;;;;;;;43.40;7.82;;;6.50;99.90;;;;;;5038700;28;20057;-61
2024/01/23 06:27:29;;;;;;;43.47;9.10;;;6.60;99.90;;;;;;5020273;28;20057;-61
2024/01/23 06:29:55;;;;;;;40.97;7.82;;;6.50;99.90;;;;;;4958641;28;20046;-61
2024/01/23 06:32:20;;;;;;;44.67;8.80;;;6.60;99.90;;;;;;4954912;28;20122;-61
2024/01/23 06:34:46;;;;;;;43.80;7.68;;;6.60;99.90;;;;;;5021889;28;20047;-61
2024/01/23 06:37:12;;;;;;;46.50;8.70;;;6.50;99.90;;;;;;4957753;28;20426;-61
2024/01/23 06:39:39;;;;;;;39.28;8.35;;;6.60;99.90;;;;;;4953214;28;20121;-61
2024/01/23 06:42:05;;;;;;;42.00;7.35;;;6.60;99.90;;;;;;4954663;28;20039;-62
2024/01/23 06:44:31;;;;;;;33.42;7.50;;;6.60;99.90;;;;;;5024313;28;20035;-62
2024/01/23 06:46:56;;;;;;;50.22;8.20;;;6.50;99.90;;;;;;5022812;28;20514;-62
2024/01/23 06:49:22;;;;;;;54.10;8.98;;;6.50;99.90;;;;;;5019113;28;20043;-62
2024/01/23 06:51:48;;;;;;;46.20;9.15;;;6.50;99.90;;;;;;5013843;28;20512;-62
2024/01/23 06:54:13;;;;;;;46.55;7.22;;;6.50;99.90;;;;;;5014276;28;20051;-62
2024/01/23 06:56:39;;;;;;;41.17;7.28;;;6.50;99.90;;;;;;4958070;28;20061;-62
2024/01/23 06:59:05;;;;;;;46.38;8.18;;;6.50;99.90;;;;;;5021883;28;20043;-62
2024/01/23 07:01:31;;;;;;;44.25;8.93;;;6.40;99.90;;;;;;5014004;28;20043;-61
2024/01/23 07:03:57;;;;;;;41.67;8.27;;;6.40;99.90;;;;;;5016769;28;20061;-62
2024/01/23 07:06:23;;;;;;;40.83;8.38;;;6.40;99.90;;;;;;5022621;28;20054;-62
2024/01/23 07:08:49;;;;;;;42.97;8.95;;;6.40;99.90;;;;;;4939530;28;20043;-62
2024/01/23 07:11:14;;;;;;;44.38;7.75;;;6.40;99.90;;;;;;5032336;28;20038;-61
2024/01/23 07:13:40;;;;;;;50.80;7.57;;;6.30;99.90;;;;;;5018314;28;20049;-61
2024/01/23 07:16:06;;;;;;;38.85;7.28;;;6.30;99.90;;;;;;4955514;28;20422;-61
2024/01/23 07:18:32;;;;;;;46.13;9.10;;;6.30;99.90;;;;;;4959113;28;20118;-61
2024/01/23 07:20:59;;;;;;;42.70;8.18;;;6.30;99.90;;;;;;5027831;28;20521;-62
2024/01/23 07:23:25;;;;;;;54.88;8.40;;;6.20;99.90;;;;;;5024343;28;20047;-62
2024/01/23 07:25:50;;;;;;;47.10;7.88;;;6.30;99.90;;;;;;5026856;28;20057;-62
2024/01/23 07:28:16;;;;;;;40.47;7.13;;;6.20;99.90;;;;;;5008649;28;20043;-62
2024/01/23 07:30:42;;;;;;;38.42;7.85;;;6.20;99.90;;;;;;5022712;28;20038;-62
2024/01/23 07:33:09;;;;;;;43.95;9.20;;;6.20;99.90;;;;;;5016167;28;20043;-62
2024/01/23 07:35:35;;;;;;;39.67;8.10;;;6.20;99.90;;;;;;5020954;28;20062;-62
2024/01/23 07:38:00;;;;;;;40.28;8.02;;;6.20;99.90;;;;;;5033181;28;20414;-61
2024/01/23 07:40:26;;;;;;;39.85;7.45;;;6.20;99.90;;;;;;5022692;28;20043;-62
2024/01/23 07:42:52;;;;;;;41.80;7.63;;;6.10;99.90;;;;;;4957207;28;20085;-62
2024/01/23 07:45:18;;;;;;;45.45;9.25;;;6.20;99.90;;;;;;4956510;28;20067;-62
2024/01/23 07:47:44;;;;;;;40.45;7.32;;;6.20;99.90;;;;;;5009455;28;20054;-62
2024/01/23 07:50:11;;;;;;;39.55;7.82;;;6.20;99.90;;;;;;5022689;28;20039;-62
2024/01/23 07:52:37;;;;;;;44.92;8.70;;;6.20;99.90;;;;;;5031042;28;20042;-62
2024/01/23 07:55:03;;;;;;;48.95;8.68;;;6.20;99.90;;;;;;5017755;28;20272;-62
2024/01/23 07:57:29;;;;;;;50.67;7.72;;;6.20;99.90;;;;;;5021046;28;20054;-61
2024/01/23 07:59:54;;;;;;;45.83;7.65;;;6.10;99.90;;;;;;4995960;28;20100;-62
2024/01/23 08:02:20;;;;;;;49.42;10.57;;;6.20;99.90;;;;;;5018840;28;20469;-62
2024/01/23 08:04:46;;;;;;;51.70;8.15;;;6.20;99.90;;;;;;4969678;28;20050;-62
2024/01/23 08:07:11;;;;;;;42.95;7.20;;;6.20;99.90;;;;;;4965837;28;20567;-62
2024/01/23 08:09:37;;;;;;;53.28;8.32;;;6.20;99.90;;;;;;5016184;28;20482;-62
2024/01/23 08:12:06;;;;;;;33.35;7.32;;;6.20;99.90;;;;;;5036610;28;20375;-62
2024/01/23 08:14:31;;;;;;;40.70;8.63;;;6.20;99.90;;;;;;5035952;28;20096;-62
2024/01/23 08:16:57;;;;;;;40.53;8.05;;;6.20;99.90;;;;;;5017930;28;20497;-62
2024/01/23 08:19:23;;;;;;;47.45;7.30;;;6.20;99.90;;;;;;5049404;28;20134;-62
2024/01/23 08:21:49;;;;;;;38.78;7.05;;;6.20;99.90;;;;;;4969104;28;20046;-62
2024/01/23 08:24:15;;;;;;;37.22;7.93;;;6.20;99.90;;;;;;4967253;28;20499;-62
2024/01/23 08:26:41;;;;;;;42.70;7.35;;;6.30;99.90;;;;;;5032254;28;20468;-62
2024/01/23 08:29:09;;;;;;;39.70;7.05;;;6.30;99.90;;;;;;5035075;28;20118;-62
2024/01/23 08:31:35;;;;;;;41.97;8.48;;;6.30;99.90;;;;;;5034538;28;20042;-62
2024/01/23 08:34:01;;;;;;;49.47;10.68;;;6.30;99.90;;;;;;5031506;28;20383;-62
2024/01/23 08:36:27;;;;;;;42.45;7.88;;;6.30;99.90;;;;;;5020155;28;20338;-62
2024/01/23 08:38:53;;;;;;;43.15;6.95;;;6.30;99.90;;;;;;4959460;28;20417;-62
2024/01/23 08:41:18;;;;;;;43.72;6.90;;;6.30;99.90;;;;;;5026811;28;20051;-62
2024/01/23 08:43:44;;;;;;;37.72;7.38;;;6.40;99.90;;;;;;4953498;28;20047;-62
2024/01/23 08:46:14;;;;;;;49.88;7.90;;;6.40;99.90;;;;;;4954229;28;20078;-62
2024/01/23 08:48:39;;;;;;;52.83;9.50;;;6.40;99.90;;;;;;4955674;28;20046;-62
2024/01/23 08:51:05;;;;;;;42.15;8.27;;;6.40;99.90;;;;;;5018179;28;20042;-62
2024/01/23 08:53:31;;;;;;;51.60;8.60;;;6.40;99.90;;;;;;5005622;28;20062;-62
2024/01/23 08:55:57;;;;;;;40.45;7.03;;;6.50;99.90;;;;;;5011574;28;20050;-62
2024/01/23 08:58:23;;;;;;;44.90;8.18;;;6.50;99.90;;;;;;4986468;23;20043;-59
2024/01/23 09:00:48;;;;;;;39.72;7.18;;;6.50;99.90;;;;;;4950122;28;20471;-59
2024/01/23 09:03:14;;;;;;;45.75;8.30;;;6.50;99.90;;;;;;4952355;28;20075;-59
2024/01/23 09:05:40;;;;;;;43.58;7.50;;;6.50;99.90;;;;;;4954966;28;20138;-60
2024/01/23 09:08:06;;;;;;;38.85;7.05;;;6.60;99.90;;;;;;4931235;28;20042;-60
2024/01/23 09:10:32;;;;;;;39.03;7.30;;;6.60;99.90;;;;;;4953743;28;20046;-59
2024/01/23 09:12:58;;;;;;;47.13;8.43;;;6.60;99.90;;;;;;4967923;28;20051;-59
2024/01/23 09:15:23;;;;;;;45.30;8.48;;;6.60;99.90;;;;;;4934189;28;20042;-59
2024/01/23 09:17:50;;;;;;;33.75;6.30;;;6.70;99.90;;;;;;4965321;28;20582;-60
2024/01/23 09:20:17;;;;;;;35.40;7.38;;;6.70;99.90;;;;;;4942045;28;20050;-58
2024/01/23 09:22:43;;;;;;;44.72;7.55;;;6.70;99.90;;;;;;4962311;28;20454;-60
2024/01/23 09:25:09;;;;;;;42.33;7.88;;;6.80;99.90;;;;;;4949224;28;20043;-60
2024/01/23 09:27:35;;;;;;;47.75;8.18;;;6.80;99.90;;;;;;4939864;28;20050;-60
2024/01/23 09:30:01;;;;;;;40.67;7.70;;;6.90;99.90;;;;;;4938404;28;20136;-60
2024/01/23 09:32:26;;;;;;;44.08;8.32;;;7.00;99.90;;;;;;4944365;28;20070;-60
2024/01/23 09:34:52;;;;;;;38.42;7.80;;;7.00;99.90;;;;;;4944079;28;20039;-60
2024/01/23 09:37:18;;;;;;;39.97;6.90;;;7.10;99.90;;;;;;4947377;28;20054;-60
2024/01/23 09:39:43;;;;;;;39.15;7.80;;;7.20;99.90;;;;;;4948111;28;20092;-60
2024/01/23 09:42:10;;;;;;;38.35;6.85;;;7.20;99.90;;;;;;4974605;28;20406;-60
2024/01/23 09:44:37;;;;;;;36.40;8.77;;;7.30;99.90;;;;;;4943028;28;20051;-60
2024/01/23 09:47:08;;;;;;;45.15;8.95;;;7.20;99.90;;;;;;4965345;28;20181;-60
2024/01/23 09:49:36;;;;;;;43.80;8.80;;;7.20;99.90;;;;;;4962707;28;20092;-60
2024/01/23 09:52:04;;;;;;;40.60;7.20;;;7.30;99.90;;;;;;4952015;28;20578;-59
2024/01/23 09:54:31;;;;;;;40.80;7.55;;;7.40;99.90;;;;;;4951891;28;20046;-60
2024/01/23 09:57:01;;;;;;;39.20;8.63;;;7.40;99.90;;;;;;4964231;28;20057;-60
2024/01/23 09:59:27;;;;;;;32.92;6.53;;;7.50;99.90;;;;;;4951195;28;20047;-60
2024/01/23 10:01:54;;;;;;;45.65;9.15;;;7.50;99.90;;;;;;4939721;28;20061;-60
2024/01/23 10:04:21;;;;;;;34.85;7.13;;;7.50;99.90;;;;;;4932929;28;20034;-60
2024/01/23 10:06:47;;;;;;;31.92;7.03;;;7.60;99.90;;;;;;4958861;28;20051;-60
2024/01/23 10:09:13;;;;;;;45.70;9.02;;;7.70;99.90;;;;;;4943900;28;20042;-59
2024/01/23 10:11:39;;;;;;;43.67;7.63;;;7.70;99.90;;;;;;4944663;28;20113;-59
2024/01/23 10:14:06;;;;;;;33.80;7.18;;;7.70;99.90;;;;;;4939338;28;20308;-60
2024/01/23 10:16:32;;;;;;;38.22;7.90;;;7.80;99.90;;;;;;4943873;28;20062;-60
2024/01/23 10:18:59;;;;;;;35.22;7.25;;;7.80;99.90;;;;;;4954156;28;20051;-58
2024/01/23 10:21:25;;;;;;;48.53;9.25;;;7.90;99.90;;;;;;4956632;28;20537;-60
2024/01/23 10:23:51;;;;;;;46.47;7.38;;;7.90;99.90;;;;;;4928442;28;20095;-59
2024/01/23 10:26:18;;;;;;;43.10;7.32;;;7.90;99.90;;;;;;4932134;28;20043;-60
2024/01/23 10:28:44;;;;;;;40.33;7.28;;;8.00;99.90;;;;;;4933613;28;20570;-59
2024/01/23 10:31:10;;;;;;;39.20;8.93;;;8.00;99.90;;;;;;4932257;28;20751;-59
2024/01/23 10:33:37;;;;;;;43.00;8.73;;;8.10;99.90;;;;;;4962857;28;20375;-60
2024/01/23 10:36:05;;;;;;;42.15;8.00;;;8.20;99.90;;;;;;4933163;28;20062;-60
2024/01/23 10:38:37;;;;;;;42.00;7.97;;;8.20;99.90;;;;;;4947433;28;20043;-60
2024/01/23 10:41:07;;;;;;;33.30;6.93;;;8.20;99.90;;;;;;4946509;28;20579;-59
2024/01/23 10:43:36;;;;;;;43.92;7.60;;;8.20;99.90;;;;;;4946396;28;20049;-60
2024/01/23 10:46:02;;;;;;;39.65;7.00;;;8.20;99.90;;;;;;4948851;28;20043;-60
2024/01/23 10:48:32;;;;;;;42.10;7.53;;;8.30;99.90;;;;;;4950774;28;20092;-60
2024/01/23 10:51:19;;;;;;;33.38;6.25;;;8.40;99.90;;;;;;4940178;28;20126;-60
2024/01/23 10:54:19;;;;;;;41.35;7.30;;;8.40;99.90;;;;;;4936504;28;20038;-60
2024/01/23 10:56:46;;;;;;;38.90;6.70;;;8.40;99.90;;;;;;4942014;28;20057;-60
2024/01/23 10:59:17;;;;;;;35.70;6.28;;;8.60;99.90;;;;;;5020319;28;20080;-61
2024/01/23 11:01:47;;;;;;;31.17;6.30;;;8.60;99.90;;;;;;4945476;28;20051;-60
2024/01/23 11:04:15;;;;;;;33.13;6.32;;;8.70;99.90;;;;;;4950492;28;20055;-60
2024/01/23 11:06:55;;;;;;;33.75;7.72;;;8.80;99.90;;;;;;4943944;28;20043;-59
2024/01/23 11:09:29;;;;;;;43.25;9.13;;;8.70;99.90;;;;;;4946788;28;20036;-59
2024/01/23 11:12:00;;;;;;;39.60;7.60;;;8.80;99.90;;;;;;4937879;28;20058;-58
2024/01/23 11:15:01;;;;;;;30.27;6.57;;;8.90;99.90;;;;;;4954712;28;20050;-58
2024/01/23 11:17:32;;;;;;;32.33;6.53;;;8.90;99.90;;;;;;4941070;28;20055;-60
2024/01/23 11:20:13;;;;;;;40.40;7.78;;;8.80;99.90;;;;;;4942800;28;20055;-59
2024/01/23 11:22:39;;;;;;;36.92;6.32;;;8.70;99.90;;;;;;4928170;28;20054;-60
2024/01/23 11:25:05;;;;;;;30.48;6.65;;;8.80;99.90;;;;;;4943080;28;20050;-59
2024/01/23 11:27:33;;;;;;;38.25;6.15;;;8.70;99.90;;;;;;4934308;28;20047;-61
2024/01/23 11:29:59;;;;;;;33.17;6.90;;;8.80;99.90;;;;;;4945346;28;20034;-60
2024/01/23 11:32:28;;;;;;;39.70;7.28;;;8.70;99.90;;;;;;4937931;28;20102;-59
2024/01/23 11:35:06;;;;;;;30.08;6.22;;;8.70;99.90;;;;;;5024523;28;20047;-58
2024/01/23 11:37:32;;;;;;;29.75;6.47;;;8.70;99.90;;;;;;4948740;28;20709;-60
2024/01/23 11:40:05;;;;;;;30.75;6.00;;;8.70;99.90;;;;;;4952176;28;20081;-59
2024/01/23 11:42:40;;;;;;;37.05;7.05;;;8.70;99.90;;;;;;4949572;28;20508;-59
2024/01/23 11:45:26;;;;;;;35.92;6.93;;;8.70;99.90;;;;;;4954650;28;20125;-60
2024/01/23 11:47:57;;;;;;;31.67;6.40;;;8.70;99.90;;;;;;4958539;28;20753;-60
2024/01/23 11:50:25;;;;;;;31.77;5.53;;;8.70;99.90;;;;;;4935234;28;20430;-60
2024/01/23 11:52:53;;;;;;;31.77;6.25;;;8.70;99.90;;;;;;4962129;28;20051;-59
2024/01/23 11:55:19;;;;;;;35.88;6.22;;;8.70;99.90;;;;;;4941210;28;20046;-59
2024/01/23 11:57:49;;;;;;;35.47;6.57;;;8.70;99.90;;;;;;4957240;28;20085;-59
2024/01/23 12:00:18;;;;;;;37.35;6.40;;;8.70;99.90;;;;;;4946220;28;20046;-60
2024/01/23 12:02:44;;;;;;;33.55;6.00;;;8.60;99.90;;;;;;4946165;28;20042;-60
2024/01/23 12:05:10;;;;;;;36.83;6.13;;;8.70;99.90;;;;;;4924929;28;20069;-60
2024/01/23 12:07:37;;;;;;;28.48;6.65;;;8.70;99.90;;;;;;4939288;28;20600;-60
2024/01/23 12:10:08;;;;;;;25.05;5.40;;;8.70;99.90;;;;;;4958722;28;20456;-59
2024/01/23 12:12:34;;;;;;;34.50;5.57;;;8.80;99.90;;;;;;4939369;28;20054;-60
2024/01/23 12:14:59;;;;;;;36.38;8.30;;;8.80;99.90;;;;;;4957567;28;20039;-61
2024/01/23 12:17:25;;;;;;;35.38;7.70;;;8.80;99.90;;;;;;4957548;28;20085;-60
2024/01/23 12:19:51;;;;;;;32.35;5.88;;;8.90;99.90;;;;;;4942047;28;20054;-60
2024/01/23 12:22:18;;;;;;;31.13;6.40;;;8.90;99.90;;;;;;4956269;28;20034;-60
2024/01/23 12:24:44;;;;;;;30.55;5.18;;;8.90;99.90;;;;;;4942994;28;20054;-60
2024/01/23 12:27:11;;;;;;;33.58;5.13;;;8.90;99.90;;;;;;4922300;28;20179;-61
2024/01/23 12:29:39;;;;;;;29.35;5.53;;;9.00;99.90;;;;;;4934784;28;20529;-58
2024/01/23 12:32:04;;;;;;;29.80;5.35;;;9.10;99.90;;;;;;4934419;28;20039;-60
2024/01/23 12:34:31;;;;;;;23.75;5.65;;;9.00;99.90;;;;;;4939409;28;20038;-60
2024/01/23 12:37:00;;;;;;;40.55;6.47;;;9.00;99.90;;;;;;4947756;28;20826;-60
2024/01/23 12:39:29;;;;;;;33.08;5.20;;;9.00;99.90;;;;;;4964161;28;20126;-60
2024/01/23 12:41:55;;;;;;;26.40;5.03;;;8.90;99.90;;;;;;4933593;28;20058;-60
2024/01/23 12:44:22;;;;;;;26.58;5.13;;;8.80;99.90;;;;;;4935436;28;20042;-59
2024/01/23 12:46:47;;;;;;;27.95;5.05;;;8.70;99.90;;;;;;4950758;28;20047;-60